createdAt,value
2023-01-11T00:00:49.742Z,0.90
2023-01-11T00:03:17.564Z,0.77
2023-01-11T00:05:45.408Z,0.90
2023-01-11T00:08:12.624Z,1.57
2023-01-11T00:10:40.377Z,0.70
2023-01-11T00:13:07.604Z,0.77
2023-01-11T00:15:36.873Z,0.83
2023-01-11T00:18:03.816Z,0.90
2023-01-11T00:20:31.030Z,2.20
2023-01-11T00:22:58.295Z,0.90
2023-01-11T00:25:25.330Z,1.23
2023-01-11T00:27:52.312Z,3.30
2023-01-11T00:30:19.190Z,1.40
2023-01-11T00:32:46.689Z,1.33
2023-01-11T00:35:13.949Z,0.70
2023-01-11T00:37:41.053Z,0.70
2023-01-11T00:40:09.104Z,0.70
2023-01-11T00:42:54.689Z,0.87
2023-01-11T00:45:40.459Z,0.60
2023-01-11T00:48:09.768Z,0.70
2023-01-11T00:50:38.963Z,0.70
2023-01-11T00:53:06.902Z,0.70
2023-01-11T00:55:34.269Z,0.70
2023-01-11T00:58:01.557Z,1.47
2023-01-11T01:00:29.289Z,0.70
2023-01-11T01:02:56.888Z,0.70
2023-01-11T01:05:23.773Z,1.17
2023-01-11T01:07:50.694Z,0.80
2023-01-11T01:10:18.708Z,0.80
2023-01-11T01:13:05.041Z,0.70
2023-01-11T01:15:32.749Z,2.40
2023-01-11T01:17:59.779Z,1.23
2023-01-11T01:20:28.324Z,1.10
2023-01-11T01:22:55.333Z,0.70
2023-01-11T01:25:22.182Z,0.90
2023-01-11T01:27:49.152Z,1.00
2023-01-11T01:30:18.594Z,0.60
2023-01-11T01:32:45.471Z,0.70
2023-01-11T01:35:12.347Z,0.70
2023-01-11T01:37:39.396Z,0.80
2023-01-11T01:40:07.570Z,0.70
2023-01-11T01:42:35.547Z,0.70
2023-01-11T01:45:10.116Z,0.70
2023-01-11T01:47:46.054Z,0.80
2023-01-11T01:50:40.603Z,0.70
2023-01-11T01:53:17.577Z,0.70
2023-01-11T01:55:52.183Z,1.80
2023-01-11T01:58:25.250Z,0.70
2023-01-11T02:00:52.298Z,0.70
2023-01-11T02:03:23.628Z,0.90
2023-01-11T02:05:52.186Z,0.90
2023-01-11T02:08:37.223Z,1.43
2023-01-11T02:11:27.718Z,0.80
2023-01-11T02:13:56.119Z,0.60
2023-01-11T02:16:23.104Z,0.80
2023-01-11T02:18:50.053Z,0.70
2023-01-11T02:21:30.540Z,0.70
2023-01-11T02:24:33.050Z,0.67
2023-01-11T02:27:18.765Z,0.63
2023-01-11T02:30:23.331Z,0.60
2023-01-11T02:33:49.174Z,0.60
2023-01-11T02:36:28.861Z,0.60
2023-01-11T02:39:24.144Z,0.70
2023-01-11T02:42:34.109Z,1.10
2023-01-11T02:45:50.744Z,0.70
2023-01-11T02:49:08.341Z,0.60
2023-01-11T02:51:48.944Z,0.70
2023-01-11T02:54:21.458Z,0.70
2023-01-11T02:56:52.437Z,0.70
2023-01-11T02:59:23.281Z,0.70
2023-01-11T03:01:53.623Z,3.27
2023-01-11T03:04:25.741Z,0.60
2023-01-11T03:07:14.012Z,0.60
2023-01-11T03:09:55.065Z,0.60
2023-01-11T03:12:55.338Z,2.00
2023-01-11T03:16:03.609Z,0.70
2023-01-11T03:18:51.766Z,2.00
2023-01-11T03:21:35.983Z,0.80
2023-01-11T03:24:29.304Z,0.70
2023-01-11T03:27:35.214Z,1.30
2023-01-11T03:30:08.216Z,5.13
2023-01-11T03:32:50.262Z,1.20
2023-01-11T03:35:48.329Z,0.70
2023-01-11T03:38:31.528Z,0.70
2023-01-11T03:41:05.146Z,0.70
2023-01-11T03:43:35.664Z,0.60
2023-01-11T03:46:10.472Z,0.70
2023-01-11T03:48:44.821Z,0.80
2023-01-11T03:51:15.297Z,0.90
2023-01-11T03:53:46.727Z,0.60
2023-01-11T03:56:16.843Z,0.67
2023-01-11T03:58:44.466Z,0.70
2023-01-11T04:01:13.097Z,0.60
2023-01-11T04:03:40.153Z,1.87
2023-01-11T04:06:10.797Z,0.90
2023-01-11T04:08:37.760Z,0.60
2023-01-11T04:11:05.324Z,0.70
2023-01-11T04:13:34.147Z,0.70
2023-01-11T04:16:01.281Z,0.70
2023-01-11T04:18:28.307Z,0.60
2023-01-11T04:20:55.381Z,0.60
2023-01-11T04:23:22.346Z,2.30
2023-01-11T04:25:53.385Z,0.60
2023-01-11T04:28:20.280Z,0.60
2023-01-11T04:30:47.461Z,0.90
2023-01-11T04:33:15.628Z,0.77
2023-01-11T04:35:44.248Z,0.60
2023-01-11T04:38:11.263Z,0.70
2023-01-11T04:40:38.276Z,0.63
2023-01-11T04:43:05.193Z,0.70
2023-01-11T04:45:32.388Z,1.23
2023-01-11T04:47:59.431Z,0.70
2023-01-11T04:50:27.545Z,0.70
2023-01-11T04:52:54.606Z,0.60
2023-01-11T04:55:21.656Z,0.60
2023-01-11T04:57:48.501Z,0.60
2023-01-11T05:00:16.319Z,0.60
2023-01-11T05:02:43.312Z,0.70
2023-01-11T05:05:11.649Z,0.60
2023-01-11T05:07:39.396Z,0.60
2023-01-11T05:10:07.779Z,0.60
2023-01-11T05:12:34.647Z,0.70
2023-01-11T05:15:01.595Z,0.60
2023-01-11T05:17:28.459Z,2.30
2023-01-11T05:19:55.355Z,0.60
2023-01-11T05:22:22.220Z,2.13
2023-01-11T05:24:50.350Z,0.60
2023-01-11T05:27:19.564Z,0.60
2023-01-11T05:29:46.438Z,0.60
2023-01-11T05:32:13.452Z,2.10
2023-01-11T05:34:40.328Z,0.80
2023-01-11T05:37:07.278Z,0.60
2023-01-11T05:39:34.179Z,0.60
2023-01-11T05:42:01.068Z,0.70
2023-01-11T05:44:46.687Z,0.80
2023-01-11T05:47:13.608Z,0.60
2023-01-11T05:49:53.010Z,0.70
2023-01-11T05:52:20.685Z,0.60
2023-01-11T05:54:47.591Z,0.60
2023-01-11T05:57:18.584Z,2.40
2023-01-11T05:59:45.496Z,0.70
2023-01-11T06:02:12.663Z,0.80
2023-01-11T06:04:39.731Z,0.60
2023-01-11T06:07:06.936Z,0.60
2023-01-11T06:09:33.875Z,0.60
2023-01-11T06:12:00.822Z,0.60
2023-01-11T06:14:27.727Z,0.70
2023-01-11T06:16:54.955Z,1.27
2023-01-11T06:19:21.954Z,1.33
2023-01-11T06:21:48.838Z,0.70
2023-01-11T06:24:16.150Z,0.60
2023-01-11T06:26:43.091Z,0.70
2023-01-11T06:29:10.006Z,0.80
2023-01-11T06:31:36.904Z,0.60
2023-01-11T06:34:03.799Z,1.13
2023-01-11T06:36:30.752Z,1.13
2023-01-11T06:38:57.643Z,0.70
2023-01-11T06:41:25.883Z,0.63
2023-01-11T06:43:53.495Z,0.70
2023-01-11T06:46:20.680Z,2.13
2023-01-11T06:48:47.951Z,0.70
2023-01-11T06:51:16.779Z,1.07
2023-01-11T06:53:44.505Z,2.80
2023-01-11T06:56:13.606Z,0.67
2023-01-11T06:58:41.002Z,0.70
2023-01-11T07:01:08.365Z,0.80
2023-01-11T07:03:35.500Z,0.90
2023-01-11T07:06:02.758Z,1.43
2023-01-11T07:08:29.752Z,0.67
2023-01-11T07:10:59.103Z,0.70
2023-01-11T07:13:25.980Z,0.90
2023-01-11T07:15:54.471Z,0.60
2023-01-11T07:18:21.829Z,0.73
2023-01-11T07:20:50.250Z,0.83
2023-01-11T07:23:17.195Z,0.60
2023-01-11T07:25:44.051Z,0.70
2023-01-11T07:28:10.982Z,0.93
2023-01-11T07:33:27.987Z,0.80
2023-01-11T07:35:55.054Z,0.90
2023-01-11T07:38:24.740Z,0.90
2023-01-11T07:40:52.431Z,0.60
2023-01-11T07:43:21.575Z,1.23
2023-01-11T07:45:50.477Z,0.83
2023-01-11T07:48:26.237Z,0.70
2023-01-11T07:50:55.247Z,0.83
2023-01-11T07:53:26.651Z,1.80
2023-01-11T07:55:55.850Z,1.53
2023-01-11T07:58:25.833Z,1.30
2023-01-11T08:00:52.726Z,1.00
2023-01-11T08:03:19.785Z,1.00
2023-01-11T08:05:51.800Z,0.70
2023-01-11T08:08:18.758Z,0.80
2023-01-11T08:10:45.683Z,0.73
2023-01-11T08:13:32.698Z,1.83
2023-01-11T08:16:00.289Z,0.90
2023-01-11T08:18:27.384Z,0.70
2023-01-11T08:20:54.453Z,1.20
2023-01-11T08:23:21.375Z,0.87
2023-01-11T08:25:48.278Z,1.37
2023-01-11T08:28:15.212Z,1.07
2023-01-11T08:30:42.745Z,1.10
2023-01-11T08:33:12.795Z,1.50
2023-01-11T08:35:40.405Z,1.30
2023-01-11T08:38:08.192Z,6.50
2023-01-11T08:40:35.237Z,1.63
2023-01-11T08:43:02.295Z,1.67
2023-01-11T08:45:29.540Z,1.50
2023-01-11T08:47:56.534Z,1.90
2023-01-11T08:50:23.486Z,1.60
2023-01-11T08:52:51.907Z,2.27
2023-01-11T08:55:22.008Z,1.70
2023-01-11T08:57:48.979Z,1.70
2023-01-11T09:00:16.538Z,1.60
2023-01-11T09:02:48.758Z,1.80
2023-01-11T09:05:18.079Z,1.80
2023-01-11T09:07:45.513Z,1.60
2023-01-11T09:10:12.470Z,1.83
2023-01-11T09:12:39.370Z,2.00
2023-01-11T09:15:07.054Z,2.40
2023-01-11T09:17:34.313Z,2.13
2023-01-11T09:20:01.201Z,1.90
2023-01-11T09:22:28.048Z,5.13
2023-01-11T09:24:55.459Z,4.47
2023-01-11T09:27:23.637Z,8.80
2023-01-11T09:29:50.863Z,3.97
2023-01-11T09:32:19.590Z,3.50
2023-01-11T09:34:47.339Z,3.07
2023-01-11T09:37:16.765Z,3.53
2023-01-11T09:39:45.378Z,6.60
2023-01-11T09:42:34.124Z,5.20
2023-01-11T09:45:23.112Z,5.10
2023-01-11T09:47:53.895Z,6.93
2023-01-11T09:50:26.260Z,7.07
2023-01-11T09:53:08.045Z,10.47
2023-01-11T09:55:42.296Z,8.70
2023-01-11T09:58:42.759Z,7.67
2023-01-11T10:01:27.549Z,10.17
2023-01-11T10:04:33.119Z,11.00
2023-01-11T10:07:25.029Z,6.70
2023-01-11T10:18:28.491Z,22.43
2023-01-11T10:19:35.992Z,16.17
2023-01-11T10:22:15.798Z,9.07
2023-01-11T10:24:56.530Z,11.67
2023-01-11T10:27:36.679Z,12.33
2023-01-11T10:30:52.243Z,13.70
2023-01-11T10:34:13.252Z,14.17
2023-01-11T10:37:18.797Z,10.53
2023-01-11T10:40:21.366Z,18.13
2023-01-11T10:43:03.925Z,13.30
2023-01-11T10:45:45.563Z,19.00
2023-01-11T10:48:34.481Z,8.43
2023-01-11T10:51:32.148Z,12.10
2023-01-11T10:54:24.261Z,12.90
2023-01-11T10:57:23.072Z,19.10
2023-01-11T11:00:24.830Z,13.03
2023-01-11T11:03:34.146Z,11.47
2023-01-11T11:06:48.697Z,12.77
2023-01-11T11:09:56.039Z,11.40
2023-01-11T11:12:30.474Z,16.67
2023-01-11T11:15:31.378Z,10.10
2023-01-11T11:17:58.463Z,13.57
2023-01-11T11:20:30.414Z,19.93
2023-01-11T11:22:57.910Z,11.60
2023-01-11T11:25:34.445Z,13.10
2023-01-11T11:28:24.351Z,25.43
2023-01-11T11:31:00.015Z,10.30
2023-01-11T11:33:36.427Z,12.50
2023-01-11T11:36:09.409Z,13.77
2023-01-11T11:38:39.625Z,10.93
2023-01-11T11:41:12.717Z,22.03
2023-01-11T11:43:45.631Z,20.93
2023-01-11T11:46:22.782Z,13.50
2023-01-11T11:49:26.668Z,9.93
2023-01-11T11:51:54.487Z,9.33
2023-01-11T11:54:43.433Z,8.03
2023-01-11T11:57:28.103Z,13.47
2023-01-11T12:00:22.996Z,7.73
2023-01-11T12:02:53.698Z,7.27
2023-01-11T12:05:20.702Z,8.93
2023-01-11T12:07:55.082Z,14.03
2023-01-11T12:10:28.157Z,13.53
2023-01-11T12:12:59.947Z,11.07
2023-01-11T12:15:29.574Z,8.43
2023-01-11T12:18:23.064Z,12.70
2023-01-11T12:20:49.975Z,13.30
2023-01-11T12:23:25.092Z,18.97
2023-01-11T12:26:24.481Z,12.83
2023-01-11T12:29:49.437Z,9.33
2023-01-11T12:32:45.136Z,12.30
2023-01-11T12:36:01.311Z,9.33
2023-01-11T12:39:08.250Z,14.93
2023-01-11T12:42:06.254Z,8.43
2023-01-11T12:44:56.670Z,14.57
2023-01-11T12:47:43.205Z,14.13
2023-01-11T12:50:44.881Z,17.57
2023-01-11T12:53:40.102Z,15.00
2023-01-11T12:56:58.026Z,12.00
2023-01-11T13:00:18.572Z,14.63
2023-01-11T13:02:59.476Z,21.63
2023-01-11T13:05:53.192Z,16.37
2023-01-11T13:08:41.745Z,13.23
2023-01-11T13:11:35.575Z,13.83
2023-01-11T13:14:31.791Z,22.37
2023-01-11T13:17:43.605Z,23.77
2023-01-11T13:21:08.922Z,22.73
2023-01-11T13:23:48.354Z,11.67
2023-01-11T13:26:41.533Z,7.97
2023-01-11T13:29:31.359Z,12.53
2023-01-11T13:32:02.642Z,10.77
2023-01-11T13:34:55.607Z,4.97
2023-01-11T13:37:40.404Z,13.53
2023-01-11T13:40:41.575Z,7.17
2023-01-11T13:43:42.021Z,6.80
2023-01-11T13:47:08.347Z,9.20
2023-01-11T13:56:14.071Z,7.60
2023-01-11T13:59:03.874Z,7.10
2023-01-11T14:05:14.404Z,12.70
2023-01-11T14:08:36.838Z,18.57
2023-01-11T14:23:55.176Z,4.47
2023-01-11T14:30:26.361Z,5.50
2023-01-11T14:33:21.292Z,7.90
2023-01-11T14:36:24.538Z,17.83
2023-01-11T14:39:07.944Z,12.10
2023-01-11T15:02:18.211Z,17.13
2023-01-11T15:19:10.784Z,10.73
2023-01-11T15:21:47.894Z,7.43
2023-01-11T15:24:32.763Z,7.20
2023-01-11T15:27:01.287Z,6.77
2023-01-11T15:29:45.868Z,12.13
2023-01-11T15:32:19.491Z,10.60
2023-01-11T15:34:48.188Z,11.53
2023-01-11T15:37:48.125Z,13.70
2023-01-11T15:40:26.908Z,16.50
2023-01-11T15:43:32.488Z,8.73
2023-01-11T15:46:54.431Z,5.80
2023-01-11T15:50:06.403Z,13.33
2023-01-11T15:53:00.620Z,7.63
2023-01-11T15:55:59.937Z,11.17
2023-01-11T15:58:52.336Z,8.67
2023-01-11T16:01:28.550Z,7.63
2023-01-11T16:04:26.600Z,8.80
2023-01-11T16:07:03.283Z,13.53
2023-01-11T16:10:15.959Z,13.63
2023-01-11T16:13:03.284Z,7.37
2023-01-11T16:16:05.751Z,8.80
2023-01-11T16:18:41.162Z,7.00
2023-01-11T16:21:18.764Z,10.97
2023-01-11T16:23:49.030Z,16.20
2023-01-11T16:26:19.597Z,16.87
2023-01-11T16:28:57.498Z,12.43
2023-01-11T16:31:25.727Z,10.37
2023-01-11T16:33:53.493Z,9.07
2023-01-11T16:36:23.429Z,15.60
2023-01-11T16:39:12.096Z,10.60
2023-01-11T16:41:46.926Z,10.60
2023-01-11T16:44:34.079Z,12.17
2023-01-11T16:47:14.255Z,12.47
2023-01-11T16:49:43.616Z,15.83
2023-01-11T16:52:38.112Z,11.40
2023-01-11T16:55:25.671Z,17.07
2023-01-11T16:57:57.264Z,10.53
2023-01-11T17:00:32.480Z,12.40
2023-01-11T17:03:18.674Z,11.33
2023-01-11T17:05:57.560Z,10.60
2023-01-11T17:08:33.068Z,9.50
2023-01-11T17:11:23.039Z,13.37
2023-01-11T17:14:36.965Z,15.80
2023-01-11T17:17:07.345Z,17.60
2023-01-11T17:19:37.517Z,18.03
2023-01-11T17:22:27.211Z,10.00
2023-01-11T17:25:00.004Z,8.33
2023-01-11T17:27:38.094Z,18.33
2023-01-11T17:30:13.235Z,9.43
2023-01-11T17:32:45.881Z,17.37
2023-01-11T17:35:31.592Z,12.63
2023-01-11T17:38:01.666Z,12.93
2023-01-11T17:40:40.429Z,19.67
2023-01-11T17:43:38.923Z,14.33
2023-01-11T17:46:07.578Z,13.23
2023-01-11T17:48:35.050Z,7.13
2023-01-11T17:51:03.974Z,15.47
2023-01-11T17:53:33.067Z,15.77
2023-01-11T17:56:05.725Z,16.13
2023-01-11T17:58:39.166Z,8.33
2023-01-11T18:01:20.465Z,14.30
2023-01-11T18:03:53.576Z,10.57
2023-01-11T18:06:41.726Z,14.13
2023-01-11T18:09:39.190Z,20.50
2023-01-11T18:12:27.469Z,9.60
2023-01-11T18:15:04.789Z,7.70
2023-01-11T18:17:40.173Z,7.40
2023-01-11T18:20:37.669Z,9.87
2023-01-11T18:23:23.286Z,21.33
2023-01-11T18:26:11.068Z,16.47
2023-01-11T18:28:38.359Z,18.67
2023-01-11T18:31:05.552Z,10.03
2023-01-11T18:33:34.117Z,19.47
2023-01-11T18:36:03.948Z,7.57
2023-01-11T18:38:34.091Z,13.63
2023-01-11T18:41:26.066Z,7.77
2023-01-11T18:43:54.841Z,12.30
2023-01-11T18:46:21.849Z,18.17
2023-01-11T18:48:48.803Z,19.23
2023-01-11T18:51:36.820Z,11.23
2023-01-11T18:54:05.851Z,8.33
2023-01-11T18:56:32.712Z,18.87
2023-01-11T18:59:00.166Z,9.90
2023-01-11T19:01:27.302Z,7.47
2023-01-11T19:03:54.300Z,11.07
2023-01-11T19:06:22.759Z,15.47
2023-01-11T19:08:51.161Z,10.00
2023-01-11T19:11:18.113Z,5.90
2023-01-11T19:13:46.868Z,6.07
2023-01-11T19:16:14.825Z,3.83
2023-01-11T19:18:41.756Z,6.50
2023-01-11T19:21:14.028Z,9.23
2023-01-11T19:23:41.611Z,7.27
2023-01-11T19:26:09.709Z,12.87
2023-01-11T19:28:37.636Z,5.40
2023-01-11T19:31:09.428Z,10.57
2023-01-11T19:33:36.543Z,7.87
2023-01-11T19:36:10.296Z,9.57
2023-01-11T19:38:37.547Z,3.73
2023-01-11T19:41:10.373Z,8.27
2023-01-11T19:43:37.321Z,11.67
2023-01-11T19:46:04.480Z,5.80
2023-01-11T19:48:33.474Z,11.60
2023-01-11T19:51:08.601Z,12.60
2023-01-11T19:53:35.668Z,8.23
2023-01-11T19:56:08.321Z,5.03
2023-01-11T19:58:38.609Z,4.93
2023-01-11T20:01:10.862Z,14.10
2023-01-11T20:03:41.408Z,7.80
2023-01-11T20:06:09.115Z,12.03
2023-01-11T20:08:41.115Z,13.30
2023-01-11T20:11:09.845Z,14.90
2023-01-11T20:13:36.834Z,11.00
2023-01-11T20:16:09.269Z,4.67
2023-01-11T20:18:36.614Z,10.50
2023-01-11T20:21:06.556Z,7.17
2023-01-11T20:23:37.414Z,11.10
2023-01-11T20:26:07.138Z,9.23
2023-01-11T20:28:36.899Z,8.23
2023-01-11T20:31:07.247Z,10.47
2023-01-11T20:33:35.294Z,12.17
2023-01-11T20:36:18.468Z,12.13
2023-01-11T20:38:46.122Z,10.93
2023-01-11T20:41:35.143Z,8.00
2023-01-11T20:44:02.219Z,8.47
2023-01-11T20:46:29.326Z,9.30
2023-01-11T20:48:56.629Z,17.00
2023-01-11T20:51:23.740Z,12.37
2023-01-11T20:53:50.963Z,4.43
2023-01-11T20:56:17.894Z,7.93
2023-01-11T20:58:46.982Z,15.13
2023-01-11T21:01:16.771Z,7.03
2023-01-11T21:03:43.789Z,5.43
2023-01-11T21:06:13.195Z,7.83
2023-01-11T21:08:41.131Z,3.90
2023-01-11T21:11:12.468Z,9.53
2023-01-11T21:13:40.238Z,5.83
2023-01-11T21:16:16.787Z,6.33
2023-01-11T21:18:44.287Z,7.23
2023-01-11T21:21:16.249Z,7.53
2023-01-11T21:23:43.864Z,3.73
2023-01-11T21:26:18.741Z,8.00
2023-01-11T21:28:50.940Z,8.70
2023-01-11T21:31:18.349Z,4.73
2023-01-11T21:33:45.295Z,9.77
2023-01-11T21:36:14.162Z,9.97
2023-01-11T21:38:41.055Z,5.90
2023-01-11T21:41:18.815Z,6.43
2023-01-11T21:43:45.913Z,9.43
2023-01-11T21:46:13.287Z,5.77
2023-01-11T21:48:40.303Z,6.63
2023-01-11T21:51:10.481Z,12.63
2023-01-11T21:53:37.936Z,11.47
2023-01-11T21:56:11.446Z,6.53
2023-01-11T21:58:41.191Z,6.90
2023-01-11T22:01:12.837Z,12.73
2023-01-11T22:03:42.320Z,4.40
2023-01-11T22:06:09.693Z,16.53
2023-01-11T22:08:39.611Z,6.80
2023-01-11T22:11:07.076Z,6.17
2023-01-11T22:13:35.652Z,11.50
2023-01-11T22:16:04.977Z,8.10
2023-01-11T22:18:32.681Z,8.50
2023-01-11T22:21:10.811Z,6.30
2023-01-11T22:23:38.076Z,7.13
2023-01-11T22:26:13.225Z,3.50
2023-01-11T22:28:59.442Z,9.00
2023-01-11T22:31:28.333Z,7.50
2023-01-11T22:33:56.617Z,4.70
2023-01-11T22:36:24.477Z,7.80
2023-01-11T22:38:54.247Z,11.97
2023-01-11T22:41:23.018Z,11.50
2023-01-11T22:43:50.300Z,10.87
2023-01-11T22:46:22.524Z,8.70
2023-01-11T22:48:50.555Z,17.30
2023-01-11T22:51:20.180Z,4.23
2023-01-11T22:53:48.908Z,12.90
2023-01-11T22:56:20.271Z,11.43
2023-01-11T22:58:48.270Z,7.30
2023-01-11T23:01:20.922Z,8.00
2023-01-11T23:03:49.089Z,5.43
2023-01-11T23:06:18.884Z,5.67
2023-01-11T23:08:45.885Z,5.33
2023-01-11T23:11:50.964Z,4.77
2023-01-11T23:14:19.811Z,4.03
2023-01-11T23:16:48.422Z,11.10
2023-01-11T23:19:18.890Z,17.63
2023-01-11T23:21:46.871Z,9.20
2023-01-11T23:24:15.987Z,12.07
2023-01-11T23:26:43.783Z,5.97
2023-01-11T23:29:10.754Z,9.43
2023-01-11T23:31:37.840Z,8.50
2023-01-11T23:34:07.910Z,4.60
2023-01-11T23:36:37.813Z,11.53
2023-01-11T23:39:10.644Z,2.73
2023-01-11T23:41:55.987Z,5.77
2023-01-11T23:44:22.983Z,8.40
2023-01-11T23:47:09.209Z,7.80
2023-01-11T23:49:36.566Z,11.73
2023-01-11T23:52:03.873Z,6.53
2023-01-11T23:54:32.933Z,10.67
2023-01-11T23:57:01.385Z,6.30
2023-01-11T23:59:28.658Z,5.83
